Observations for EXETER AIRPORT, United Kingdom (EGTE)

EGTE 231020Z 31010KT 9999 FEW015 13/11 Q1034
EGTE 230950Z 29010KT CAVOK 12/11 Q1034  
EGTE 230920Z 29007KT 9999 FEW018 10/09 Q1034
EGTE 230850Z 29006KT 260V320 9999 FEW018 09/08 Q1035
EGTE 230820Z VRB03KT 9999 FEW030 10/09 Q1035
EGTE 230750Z 32004KT 9999 FEW030 08/07 Q1035
EGTE 230720Z 32004KT 9999 FEW030 08/08 Q1035
EGTE 230650Z 28004KT 9999 FEW030 06/06 Q1035
EGTE 230620Z 29006KT CAVOK 06/06 Q1035  
EGTE 230550Z 28006KT 250V310 CAVOK 06/06 Q1035  
EGTE 230520Z VRB01KT CAVOK 05/04 Q1035  
EGTE 230450Z VRB02KT CAVOK 05/04 Q1035  
EGTE 230050Z VRB02KT CAVOK 05/04 Q1038  
EGTE 230020Z VRB03KT CAVOK 06/05 Q1038  
EGTE 222350Z VRB03KT CAVOK 05/04 Q1039  
EGTE 222320Z 00000KT CAVOK 05/03 Q1039  
EGTE 222250Z VRB01KT CAVOK 04/03 Q1039  
EGTE 222220Z 32006KT CAVOK 06/05 Q1039  
EGTE 222150Z VRB02KT CAVOK 05/04 Q1039  
EGTE 222120Z 36002KT CAVOK 06/04 Q1039  
EGTE 222050Z 33003KT CAVOK 06/05 Q1039  
EGTE 222020Z VRB02KT CAVOK 07/05 Q1039  
EGTE 221950Z VRB01KT CAVOK 06/05 Q1039  
EGTE 221920Z 04003KT CAVOK 07/05 Q1039  
EGTE 221850Z 34005KT CAVOK 07/04 Q1039  
EGTE 221820Z VRB02KT CAVOK 08/05 Q1039  
EGTE 221750Z 33004KT CAVOK 10/06 Q1039  
EGTE 221720Z 34004KT CAVOK 11/06 Q1039  
EGTE 221650Z 02004KT CAVOK 12/05 Q1038  
EGTE 221620Z 02005KT 340V060 CAVOK 12/05 Q1038  
EGTE 221550Z 02009KT 340V050 CAVOK 14/06 Q1038  
EGTE 221520Z 01007KT 340V050 CAVOK 13/06 Q1038  
EGTE 221450Z 02009KT 340V050 CAVOK 13/06 Q1038  
EGTE 221420Z 01011KT 340V040 CAVOK 14/06 Q1038  
EGTE 221350Z 02009KT 340V060 CAVOK 13/05 Q1038  
EGTE 221320Z 36012KT 9999 FEW030 13/05 Q1039
EGTE 221250Z 01011KT 350V050 9999 FEW030 13/06 Q1039
EGTE 221220Z 01010KT 330V050 9999 FEW030 13/06 Q1039
EGTE 221150Z 03010KT 350V050 9999 FEW030 12/06 Q1039
EGTE 221120Z 02009KT 350V060 9999 FEW030 12/06 Q1039
EGTE 221050Z 02012KT 9999 FEW030 12/06 Q1039
EGTE 221020Z 01011KT 340V050 9999 FEW025 12/06 Q1039
EGTE 220950Z 36008KT 330V050 9999 FEW022 11/06 Q1038